sensor_id;sensor_type;location;lat;lon;timestamp;temperature;humidity
4934;DHT22;2482;49.154;8.254;2023-06-01T00:00:00;14.50;99.90
4934;DHT22;2482;49.154;8.254;2023-06-01T00:02:27;14.40;99.90
4934;DHT22;2482;49.154;8.254;2023-06-01T00:04:54;14.10;99.90
4934;DHT22;2482;49.154;8.254;2023-06-01T00:07:21;14.10;99.90
4934;DHT22;2482;49.154;8.254;2023-06-01T00:09:50;13.70;99.90
4934;DHT22;2482;49.154;8.254;2023-06-01T00:12:17;13.60;99.90
4934;DHT22;2482;49.154;8.254;2023-06-01T00:14:44;13.80;99.90
4934;DHT22;2482;49.154;8.254;2023-06-01T00:17:11;13.90;99.90
4934;DHT22;2482;49.154;8.254;2023-06-01T00:19:38;14.00;99.90
4934;DHT22;2482;49.154;8.254;2023-06-01T00:22:06;14.40;99.90
4934;DHT22;2482;49.154;8.254;2023-06-01T00:24:36;14.50;99.90
4934;DHT22;2482;49.154;8.254;2023-06-01T00:27:04;14.40;99.90
4934;DHT22;2482;49.154;8.254;2023-06-01T00:29:32;14.40;99.90
4934;DHT22;2482;49.154;8.254;2023-06-01T00:31:59;14.40;99.90
4934;DHT22;2482;49.154;8.254;2023-06-01T00:34:26;14.40;99.90
4934;DHT22;2482;49.154;8.254;2023-06-01T00:36:52;14.20;99.90
4934;DHT22;2482;49.154;8.254;2023-06-01T00:39:19;14.40;99.90
4934;DHT22;2482;49.154;8.254;2023-06-01T00:41:46;14.50;99.90
4934;DHT22;2482;49.154;8.254;2023-06-01T00:44:14;14.40;99.90
4934;DHT22;2482;49.154;8.254;2023-06-01T00:46:41;14.20;99.90
4934;DHT22;2482;49.154;8.254;2023-06-01T00:49:08;14.30;99.90
4934;DHT22;2482;49.154;8.254;2023-06-01T00:51:35;13.90;99.90
4934;DHT22;2482;49.154;8.254;2023-06-01T00:54:03;13.60;99.90
4934;DHT22;2482;49.154;8.254;2023-06-01T00:56:30;13.60;99.90
4934;DHT22;2482;49.154;8.254;2023-06-01T00:58:59;13.80;99.90
4934;DHT22;2482;49.154;8.254;2023-06-01T01:01:27;14.00;99.90
4934;DHT22;2482;49.154;8.254;2023-06-01T01:03:54;13.90;99.90
4934;DHT22;2482;49.154;8.254;2023-06-01T01:12:23;13.30;99.90
4934;DHT22;2482;49.154;8.254;2023-06-01T01:15:04;13.30;99.90
4934;DHT22;2482;49.154;8.254;2023-06-01T01:17:43;13.20;99.90
4934;DHT22;2482;49.154;8.254;2023-06-01T01:23:02;12.80;99.90
4934;DHT22;2482;49.154;8.254;2023-06-01T01:31:22;13.30;99.90
4934;DHT22;2482;49.154;8.254;2023-06-01T01:33:52;13.30;99.90
4934;DHT22;2482;49.154;8.254;2023-06-01T01:36:21;13.40;99.90
4934;DHT22;2482;49.154;8.254;2023-06-01T01:38:48;13.20;99.90
4934;DHT22;2482;49.154;8.254;2023-06-01T01:41:15;13.40;99.90
4934;DHT22;2482;49.154;8.254;2023-06-01T01:43:42;13.40;99.90
4934;DHT22;2482;49.154;8.254;2023-06-01T01:46:27;13.40;99.90
4934;DHT22;2482;49.154;8.254;2023-06-01T01:49:16;13.60;99.90
4934;DHT22;2482;49.154;8.254;2023-06-01T01:54:44;14.10;99.90
4934;DHT22;2482;49.154;8.254;2023-06-01T01:57:13;14.00;99.90
4934;DHT22;2482;49.154;8.254;2023-06-01T01:59:42;13.70;99.90
4934;DHT22;2482;49.154;8.254;2023-06-01T02:02:10;13.70;99.90
4934;DHT22;2482;49.154;8.254;2023-06-01T02:04:41;13.50;99.90
4934;DHT22;2482;49.154;8.254;2023-06-01T02:07:09;13.60;99.90
4934;DHT22;2482;49.154;8.254;2023-06-01T02:09:37;13.90;99.90
4934;DHT22;2482;49.154;8.254;2023-06-01T02:12:05;14.00;99.90
4934;DHT22;2482;49.154;8.254;2023-06-01T02:14:33;13.70;99.90
4934;DHT22;2482;49.154;8.254;2023-06-01T02:17:01;13.60;99.90
4934;DHT22;2482;49.154;8.254;2023-06-01T02:19:28;13.40;99.90
4934;DHT22;2482;49.154;8.254;2023-06-01T02:21:55;13.30;99.90
4934;DHT22;2482;49.154;8.254;2023-06-01T02:24:22;13.10;99.90
4934;DHT22;2482;49.154;8.254;2023-06-01T02:26:49;13.00;99.90
4934;DHT22;2482;49.154;8.254;2023-06-01T02:29:20;13.00;99.90
4934;DHT22;2482;49.154;8.254;2023-06-01T02:31:51;13.30;99.90
4934;DHT22;2482;49.154;8.254;2023-06-01T02:34:19;13.40;99.90
4934;DHT22;2482;49.154;8.254;2023-06-01T02:36:47;13.60;99.90
4934;DHT22;2482;49.154;8.254;2023-06-01T02:39:15;13.70;99.90
4934;DHT22;2482;49.154;8.254;2023-06-01T02:41:42;13.80;99.90
4934;DHT22;2482;49.154;8.254;2023-06-01T02:44:09;13.80;99.90
4934;DHT22;2482;49.154;8.254;2023-06-01T02:46:36;13.90;99.90
4934;DHT22;2482;49.154;8.254;2023-06-01T02:49:03;13.70;99.90
4934;DHT22;2482;49.154;8.254;2023-06-01T02:51:31;13.30;99.90
4934;DHT22;2482;49.154;8.254;2023-06-01T02:54:00;13.30;99.90
4934;DHT22;2482;49.154;8.254;2023-06-01T02:56:27;13.60;99.90
4934;DHT22;2482;49.154;8.254;2023-06-01T02:58:54;13.70;99.90
4934;DHT22;2482;49.154;8.254;2023-06-01T03:01:21;13.40;99.90
4934;DHT22;2482;49.154;8.254;2023-06-01T03:03:48;13.30;99.90
4934;DHT22;2482;49.154;8.254;2023-06-01T03:06:19;13.40;99.90
4934;DHT22;2482;49.154;8.254;2023-06-01T03:08:48;13.50;99.90
4934;DHT22;2482;49.154;8.254;2023-06-01T03:11:15;13.50;99.90
4934;DHT22;2482;49.154;8.254;2023-06-01T03:13:42;13.40;99.90
4934;DHT22;2482;49.154;8.254;2023-06-01T03:16:09;13.10;99.90
4934;DHT22;2482;49.154;8.254;2023-06-01T03:18:36;13.00;99.90
4934;DHT22;2482;49.154;8.254;2023-06-01T03:21:05;13.00;99.90
4934;DHT22;2482;49.154;8.254;2023-06-01T03:23:32;13.10;99.90
4934;DHT22;2482;49.154;8.254;2023-06-01T03:25:59;13.20;99.90
4934;DHT22;2482;49.154;8.254;2023-06-01T03:28:26;13.20;99.90
4934;DHT22;2482;49.154;8.254;2023-06-01T03:30:53;13.20;99.90
4934;DHT22;2482;49.154;8.254;2023-06-01T03:33:20;13.00;99.90
4934;DHT22;2482;49.154;8.254;2023-06-01T03:35:47;13.10;99.90
4934;DHT22;2482;49.154;8.254;2023-06-01T03:38:16;13.40;99.90
4934;DHT22;2482;49.154;8.254;2023-06-01T03:40:43;13.50;99.90
4934;DHT22;2482;49.154;8.254;2023-06-01T03:43:10;13.30;99.90
4934;DHT22;2482;49.154;8.254;2023-06-01T03:45:38;13.40;99.90
4934;DHT22;2482;49.154;8.254;2023-06-01T03:48:05;13.60;99.90
4934;DHT22;2482;49.154;8.254;2023-06-01T03:50:32;13.90;99.90
4934;DHT22;2482;49.154;8.254;2023-06-01T03:52:59;14.10;99.90
4934;DHT22;2482;49.154;8.254;2023-06-01T03:55:26;14.20;99.90
4934;DHT22;2482;49.154;8.254;2023-06-01T03:57:53;14.30;99.90
4934;DHT22;2482;49.154;8.254;2023-06-01T04:00:20;14.40;99.90
4934;DHT22;2482;49.154;8.254;2023-06-01T04:02:51;14.30;99.90
4934;DHT22;2482;49.154;8.254;2023-06-01T04:05:24;14.40;99.90
4934;DHT22;2482;49.154;8.254;2023-06-01T04:07:53;14.40;99.90
4934;DHT22;2482;49.154;8.254;2023-06-01T04:10:22;14.40;99.90
4934;DHT22;2482;49.154;8.254;2023-06-01T04:12:50;14.50;99.90
4934;DHT22;2482;49.154;8.254;2023-06-01T04:15:19;14.40;99.90
4934;DHT22;2482;49.154;8.254;2023-06-01T04:17:47;14.50;99.90
4934;DHT22;2482;49.154;8.254;2023-06-01T04:20:16;14.60;99.90
4934;DHT22;2482;49.154;8.254;2023-06-01T04:22:44;14.70;99.90
4934;DHT22;2482;49.154;8.254;2023-06-01T04:25:13;14.80;99.90
4934;DHT22;2482;49.154;8.254;2023-06-01T04:27:47;14.80;99.90
4934;DHT22;2482;49.154;8.254;2023-06-01T04:30:15;15.10;99.90
4934;DHT22;2482;49.154;8.254;2023-06-01T04:32:43;15.10;99.90
4934;DHT22;2482;49.154;8.254;2023-06-01T04:35:12;15.30;99.90
4934;DHT22;2482;49.154;8.254;2023-06-01T04:37:40;15.20;99.90
4934;DHT22;2482;49.154;8.254;2023-06-01T04:40:09;15.30;99.90
4934;DHT22;2482;49.154;8.254;2023-06-01T04:42:39;15.50;99.90
4934;DHT22;2482;49.154;8.254;2023-06-01T04:45:24;15.70;99.90
4934;DHT22;2482;49.154;8.254;2023-06-01T04:47:52;15.70;99.90
4934;DHT22;2482;49.154;8.254;2023-06-01T04:50:19;15.90;99.90
4934;DHT22;2482;49.154;8.254;2023-06-01T04:52:46;15.80;99.90
4934;DHT22;2482;49.154;8.254;2023-06-01T04:55:15;15.80;99.90
4934;DHT22;2482;49.154;8.254;2023-06-01T04:57:43;16.10;99.90
4934;DHT22;2482;49.154;8.254;2023-06-01T05:00:14;16.20;99.90
4934;DHT22;2482;49.154;8.254;2023-06-01T05:02:46;16.30;99.90
4934;DHT22;2482;49.154;8.254;2023-06-01T05:05:15;16.50;99.90
4934;DHT22;2482;49.154;8.254;2023-06-01T05:07:43;16.50;99.90
4934;DHT22;2482;49.154;8.254;2023-06-01T05:10:12;16.50;99.90
4934;DHT22;2482;49.154;8.254;2023-06-01T05:12:40;16.60;99.90
4934;DHT22;2482;49.154;8.254;2023-06-01T05:15:08;16.90;99.90
4934;DHT22;2482;49.154;8.254;2023-06-01T05:17:36;16.90;99.90
4934;DHT22;2482;49.154;8.254;2023-06-01T05:20:06;17.10;99.90
4934;DHT22;2482;49.154;8.254;2023-06-01T05:22:36;17.20;99.90
4934;DHT22;2482;49.154;8.254;2023-06-01T05:25:05;17.20;99.90
4934;DHT22;2482;49.154;8.254;2023-06-01T05:27:32;17.30;99.90
4934;DHT22;2482;49.154;8.254;2023-06-01T05:29:59;17.30;99.90
4934;DHT22;2482;49.154;8.254;2023-06-01T05:32:27;17.50;99.90
4934;DHT22;2482;49.154;8.254;2023-06-01T05:34:54;17.60;99.90
4934;DHT22;2482;49.154;8.254;2023-06-01T05:37:21;17.70;99.90
4934;DHT22;2482;49.154;8.254;2023-06-01T05:39:48;17.80;99.90
4934;DHT22;2482;49.154;8.254;2023-06-01T05:42:15;17.90;99.90
4934;DHT22;2482;49.154;8.254;2023-06-01T05:44:42;18.10;99.90
4934;DHT22;2482;49.154;8.254;2023-06-01T05:47:09;18.10;99.90
4934;DHT22;2482;49.154;8.254;2023-06-01T05:49:36;18.20;99.90
4934;DHT22;2482;49.154;8.254;2023-06-01T05:52:04;18.30;99.90
4934;DHT22;2482;49.154;8.254;2023-06-01T05:54:32;18.30;99.90
4934;DHT22;2482;49.154;8.254;2023-06-01T05:56:59;18.40;99.90
4934;DHT22;2482;49.154;8.254;2023-06-01T05:59:27;18.40;99.90
4934;DHT22;2482;49.154;8.254;2023-06-01T06:01:54;18.70;99.90
4934;DHT22;2482;49.154;8.254;2023-06-01T06:04:21;18.50;99.90
4934;DHT22;2482;49.154;8.254;2023-06-01T06:06:48;18.80;99.90
4934;DHT22;2482;49.154;8.254;2023-06-01T06:09:15;18.80;99.90
4934;DHT22;2482;49.154;8.254;2023-06-01T06:11:43;18.90;99.90
4934;DHT22;2482;49.154;8.254;2023-06-01T06:14:10;18.80;99.90
4934;DHT22;2482;49.154;8.254;2023-06-01T06:16:40;19.00;99.90
4934;DHT22;2482;49.154;8.254;2023-06-01T06:19:08;19.00;99.90
4934;DHT22;2482;49.154;8.254;2023-06-01T06:21:37;19.20;99.90
4934;DHT22;2482;49.154;8.254;2023-06-01T06:24:04;19.20;99.90
4934;DHT22;2482;49.154;8.254;2023-06-01T06:26:31;19.40;99.90
4934;DHT22;2482;49.154;8.254;2023-06-01T06:28:59;19.50;99.90
4934;DHT22;2482;49.154;8.254;2023-06-01T06:31:26;19.60;99.90
4934;DHT22;2482;49.154;8.254;2023-06-01T06:33:53;19.60;99.90
4934;DHT22;2482;49.154;8.254;2023-06-01T06:36:20;19.60;99.90
4934;DHT22;2482;49.154;8.254;2023-06-01T06:38:47;19.60;99.90
4934;DHT22;2482;49.154;8.254;2023-06-01T06:41:14;19.60;99.90
4934;DHT22;2482;49.154;8.254;2023-06-01T06:43:41;19.80;99.90
4934;DHT22;2482;49.154;8.254;2023-06-01T06:46:09;19.70;99.90
4934;DHT22;2482;49.154;8.254;2023-06-01T06:48:36;19.70;99.90
4934;DHT22;2482;49.154;8.254;2023-06-01T06:51:03;19.70;99.90
4934;DHT22;2482;49.154;8.254;2023-06-01T06:53:31;20.00;99.90
4934;DHT22;2482;49.154;8.254;2023-06-01T06:55:59;20.10;99.90
4934;DHT22;2482;49.154;8.254;2023-06-01T06:58:27;20.30;99.90
4934;DHT22;2482;49.154;8.254;2023-06-01T07:00:54;20.40;99.90
4934;DHT22;2482;49.154;8.254;2023-06-01T07:03:21;20.40;99.90
4934;DHT22;2482;49.154;8.254;2023-06-01T07:05:48;20.60;99.90
4934;DHT22;2482;49.154;8.254;2023-06-01T07:08:15;20.70;99.90
4934;DHT22;2482;49.154;8.254;2023-06-01T07:10:43;20.90;99.90
4934;DHT22;2482;49.154;8.254;2023-06-01T07:13:10;20.90;99.90
4934;DHT22;2482;49.154;8.254;2023-06-01T07:15:36;20.90;99.90
4934;DHT22;2482;49.154;8.254;2023-06-01T07:18:03;21.00;99.90
4934;DHT22;2482;49.154;8.254;2023-06-01T07:20:31;21.20;99.90
4934;DHT22;2482;49.154;8.254;2023-06-01T07:22:58;21.40;99.90
4934;DHT22;2482;49.154;8.254;2023-06-01T07:25:25;21.50;99.90
4934;DHT22;2482;49.154;8.254;2023-06-01T07:27:52;21.50;99.90
4934;DHT22;2482;49.154;8.254;2023-06-01T07:30:19;21.50;99.90
4934;DHT22;2482;49.154;8.254;2023-06-01T07:32:46;21.60;99.90
4934;DHT22;2482;49.154;8.254;2023-06-01T07:35:13;21.70;99.90
4934;DHT22;2482;49.154;8.254;2023-06-01T07:37:40;21.80;99.90
4934;DHT22;2482;49.154;8.254;2023-06-01T07:40:08;21.80;99.90
4934;DHT22;2482;49.154;8.254;2023-06-01T07:42:35;21.80;99.90
4934;DHT22;2482;49.154;8.254;2023-06-01T07:45:02;22.00;99.90
4934;DHT22;2482;49.154;8.254;2023-06-01T07:47:29;22.10;99.90
4934;DHT22;2482;49.154;8.254;2023-06-01T07:49:57;22.30;99.90
4934;DHT22;2482;49.154;8.254;2023-06-01T07:52:24;22.10;99.90
4934;DHT22;2482;49.154;8.254;2023-06-01T07:54:51;22.20;99.90
4934;DHT22;2482;49.154;8.254;2023-06-01T07:57:18;22.50;99.90
4934;DHT22;2482;49.154;8.254;2023-06-01T07:59:45;22.50;99.90
4934;DHT22;2482;49.154;8.254;2023-06-01T08:02:12;22.80;99.90
4934;DHT22;2482;49.154;8.254;2023-06-01T08:04:40;22.80;99.90
4934;DHT22;2482;49.154;8.254;2023-06-01T08:07:08;22.80;99.90
4934;DHT22;2482;49.154;8.254;2023-06-01T08:09:36;22.70;99.90
4934;DHT22;2482;49.154;8.254;2023-06-01T08:12:06;22.90;99.90
4934;DHT22;2482;49.154;8.254;2023-06-01T08:14:33;22.90;99.90
4934;DHT22;2482;49.154;8.254;2023-06-01T08:17:01;23.00;99.90
4934;DHT22;2482;49.154;8.254;2023-06-01T08:19:29;23.10;99.90
4934;DHT22;2482;49.154;8.254;2023-06-01T08:21:56;23.00;99.90
4934;DHT22;2482;49.154;8.254;2023-06-01T08:24:24;23.00;99.90
4934;DHT22;2482;49.154;8.254;2023-06-01T08:26:55;23.30;99.90
4934;DHT22;2482;49.154;8.254;2023-06-01T08:29:25;23.40;99.90
4934;DHT22;2482;49.154;8.254;2023-06-01T08:32:09;23.30;99.90
4934;DHT22;2482;49.154;8.254;2023-06-01T08:34:36;23.40;99.90
4934;DHT22;2482;49.154;8.254;2023-06-01T08:37:03;23.60;99.90
4934;DHT22;2482;49.154;8.254;2023-06-01T08:39:31;23.70;99.90
4934;DHT22;2482;49.154;8.254;2023-06-01T08:44:41;23.80;99.90
4934;DHT22;2482;49.154;8.254;2023-06-01T08:47:09;23.90;99.90
4934;DHT22;2482;49.154;8.254;2023-06-01T08:49:37;24.00;99.90
4934;DHT22;2482;49.154;8.254;2023-06-01T08:52:11;24.20;99.90
4934;DHT22;2482;49.154;8.254;2023-06-01T08:54:39;24.30;99.90
4934;DHT22;2482;49.154;8.254;2023-06-01T08:57:07;24.50;99.90
4934;DHT22;2482;49.154;8.254;2023-06-01T08:59:35;24.20;99.90
4934;DHT22;2482;49.154;8.254;2023-06-01T09:02:03;24.20;99.90
4934;DHT22;2482;49.154;8.254;2023-06-01T09:04:32;24.50;99.90
4934;DHT22;2482;49.154;8.254;2023-06-01T09:07:05;24.80;99.90
4934;DHT22;2482;49.154;8.254;2023-06-01T09:09:32;24.70;99.90
4934;DHT22;2482;49.154;8.254;2023-06-01T09:14:47;24.80;99.90
4934;DHT22;2482;49.154;8.254;2023-06-01T09:17:21;24.90;99.90
4934;DHT22;2482;49.154;8.254;2023-06-01T09:19:54;25.00;99.90
4934;DHT22;2482;49.154;8.254;2023-06-01T09:22:22;25.20;99.90
4934;DHT22;2482;49.154;8.254;2023-06-01T09:24:59;25.20;99.90
4934;DHT22;2482;49.154;8.254;2023-06-01T09:27:26;25.30;98.50
4934;DHT22;2482;49.154;8.254;2023-06-01T09:29:58;25.60;99.90
4934;DHT22;2482;49.154;8.254;2023-06-01T09:32:27;25.90;98.00
4934;DHT22;2482;49.154;8.254;2023-06-01T09:34:54;26.30;97.10
4934;DHT22;2482;49.154;8.254;2023-06-01T09:37:22;26.10;97.90
4934;DHT22;2482;49.154;8.254;2023-06-01T09:39:49;26.00;99.00
4934;DHT22;2482;49.154;8.254;2023-06-01T09:42:16;25.80;96.70
4934;DHT22;2482;49.154;8.254;2023-06-01T09:44:44;26.10;99.20
4934;DHT22;2482;49.154;8.254;2023-06-01T09:47:12;26.40;97.00
4934;DHT22;2482;49.154;8.254;2023-06-01T09:49:42;26.20;97.80
4934;DHT22;2482;49.154;8.254;2023-06-01T09:52:14;26.30;96.20
4934;DHT22;2482;49.154;8.254;2023-06-01T09:54:46;25.60;96.60
4934;DHT22;2482;49.154;8.254;2023-06-01T09:57:23;25.80;96.40
4934;DHT22;2482;49.154;8.254;2023-06-01T09:59:51;26.20;95.60
4934;DHT22;2482;49.154;8.254;2023-06-01T10:02:20;26.20;95.10
4934;DHT22;2482;49.154;8.254;2023-06-01T10:04:53;26.50;94.40
4934;DHT22;2482;49.154;8.254;2023-06-01T10:07:23;26.70;95.90
4934;DHT22;2482;49.154;8.254;2023-06-01T10:09:52;26.50;96.20
4934;DHT22;2482;49.154;8.254;2023-06-01T10:12:21;26.50;94.80
4934;DHT22;2482;49.154;8.254;2023-06-01T10:14:50;26.20;94.10
4934;DHT22;2482;49.154;8.254;2023-06-01T10:17:18;26.30;97.20
4934;DHT22;2482;49.154;8.254;2023-06-01T10:19:46;26.40;94.20
4934;DHT22;2482;49.154;8.254;2023-06-01T10:22:13;26.80;93.40
4934;DHT22;2482;49.154;8.254;2023-06-01T10:24:43;26.80;97.00
4934;DHT22;2482;49.154;8.254;2023-06-01T10:27:22;26.60;93.50
4934;DHT22;2482;49.154;8.254;2023-06-01T10:29:52;26.40;93.40
4934;DHT22;2482;49.154;8.254;2023-06-01T10:40:40;27.30;91.70
4934;DHT22;2482;49.154;8.254;2023-06-01T10:46:03;27.20;93.00
4934;DHT22;2482;49.154;8.254;2023-06-01T10:49:04;27.10;95.80
4934;DHT22;2482;49.154;8.254;2023-06-01T10:51:32;26.90;91.90
4934;DHT22;2482;49.154;8.254;2023-06-01T10:54:25;27.20;93.60
4934;DHT22;2482;49.154;8.254;2023-06-01T10:57:25;27.10;92.70
4934;DHT22;2482;49.154;8.254;2023-06-01T11:03:00;26.90;92.10
4934;DHT22;2482;49.154;8.254;2023-06-01T11:05:35;27.30;94.00
4934;DHT22;2482;49.154;8.254;2023-06-01T11:08:04;27.20;91.70
4934;DHT22;2482;49.154;8.254;2023-06-01T11:13:21;26.80;90.90
4934;DHT22;2482;49.154;8.254;2023-06-01T11:18:55;27.20;89.30
4934;DHT22;2482;49.154;8.254;2023-06-01T11:24:00;26.90;85.00
4934;DHT22;2482;49.154;8.254;2023-06-01T11:26:36;27.10;93.50
4934;DHT22;2482;49.154;8.254;2023-06-01T11:29:18;27.50;85.50
4934;DHT22;2482;49.154;8.254;2023-06-01T11:37:01;27.00;87.50
4934;DHT22;2482;49.154;8.254;2023-06-01T11:39:28;27.20;83.10
4934;DHT22;2482;49.154;8.254;2023-06-01T11:42:23;27.20;87.30
4934;DHT22;2482;49.154;8.254;2023-06-01T11:44:58;27.10;87.20
4934;DHT22;2482;49.154;8.254;2023-06-01T11:47:29;27.10;88.60
4934;DHT22;2482;49.154;8.254;2023-06-01T11:49:57;27.30;81.90
4934;DHT22;2482;49.154;8.254;2023-06-01T11:52:24;27.70;88.20
4934;DHT22;2482;49.154;8.254;2023-06-01T11:54:51;27.70;80.90
4934;DHT22;2482;49.154;8.254;2023-06-01T11:57:19;27.90;80.90
4934;DHT22;2482;49.154;8.254;2023-06-01T11:59:49;28.10;78.80
4934;DHT22;2482;49.154;8.254;2023-06-01T12:07:48;28.00;79.80
4934;DHT22;2482;49.154;8.254;2023-06-01T12:10:18;28.30;88.00
4934;DHT22;2482;49.154;8.254;2023-06-01T12:12:47;27.90;85.60
4934;DHT22;2482;49.154;8.254;2023-06-01T12:15:15;28.10;78.20
4934;DHT22;2482;49.154;8.254;2023-06-01T12:17:51;28.20;84.50
4934;DHT22;2482;49.154;8.254;2023-06-01T12:20:32;28.20;78.80
4934;DHT22;2482;49.154;8.254;2023-06-01T12:23:14;28.20;77.40
4934;DHT22;2482;49.154;8.254;2023-06-01T12:25:53;28.30;78.70
4934;DHT22;2482;49.154;8.254;2023-06-01T12:28:22;28.30;80.10
4934;DHT22;2482;49.154;8.254;2023-06-01T12:31:12;28.20;84.30
4934;DHT22;2482;49.154;8.254;2023-06-01T12:33:42;27.90;81.50
4934;DHT22;2482;49.154;8.254;2023-06-01T12:36:32;27.90;78.80
4934;DHT22;2482;49.154;8.254;2023-06-01T12:39:03;27.80;83.80
4934;DHT22;2482;49.154;8.254;2023-06-01T12:41:31;27.50;83.50
4934;DHT22;2482;49.154;8.254;2023-06-01T12:43:58;27.40;86.30
4934;DHT22;2482;49.154;8.254;2023-06-01T12:46:30;27.60;84.70
4934;DHT22;2482;49.154;8.254;2023-06-01T12:49:17;27.70;80.90
4934;DHT22;2482;49.154;8.254;2023-06-01T12:51:45;27.80;81.70
4934;DHT22;2482;49.154;8.254;2023-06-01T12:54:12;27.80;80.30
4934;DHT22;2482;49.154;8.254;2023-06-01T12:56:39;27.80;81.40
4934;DHT22;2482;49.154;8.254;2023-06-01T12:59:06;27.80;82.80
4934;DHT22;2482;49.154;8.254;2023-06-01T13:01:33;27.70;77.90
4934;DHT22;2482;49.154;8.254;2023-06-01T13:04:01;27.60;81.50
4934;DHT22;2482;49.154;8.254;2023-06-01T13:06:33;27.80;79.80
4934;DHT22;2482;49.154;8.254;2023-06-01T13:09:04;27.90;79.40
4934;DHT22;2482;49.154;8.254;2023-06-01T13:11:33;28.00;76.80
4934;DHT22;2482;49.154;8.254;2023-06-01T13:14:00;28.10;76.70
4934;DHT22;2482;49.154;8.254;2023-06-01T13:16:27;28.10;75.80
4934;DHT22;2482;49.154;8.254;2023-06-01T13:18:54;28.40;72.10
4934;DHT22;2482;49.154;8.254;2023-06-01T13:21:21;28.70;79.30
4934;DHT22;2482;49.154;8.254;2023-06-01T13:23:48;28.40;76.00
4934;DHT22;2482;49.154;8.254;2023-06-01T13:26:15;28.20;74.50
4934;DHT22;2482;49.154;8.254;2023-06-01T13:28:42;27.90;75.30
4934;DHT22;2482;49.154;8.254;2023-06-01T13:31:10;28.10;72.20
4934;DHT22;2482;49.154;8.254;2023-06-01T13:33:38;28.30;76.50
4934;DHT22;2482;49.154;8.254;2023-06-01T13:36:06;28.30;72.30
4934;DHT22;2482;49.154;8.254;2023-06-01T13:38:33;28.10;74.30
4934;DHT22;2482;49.154;8.254;2023-06-01T13:41:00;28.40;77.10
4934;DHT22;2482;49.154;8.254;2023-06-01T13:43:27;28.50;75.00
4934;DHT22;2482;49.154;8.254;2023-06-01T13:45:55;28.40;74.90
4934;DHT22;2482;49.154;8.254;2023-06-01T13:48:22;28.60;76.80
4934;DHT22;2482;49.154;8.254;2023-06-01T13:50:49;28.70;72.60
4934;DHT22;2482;49.154;8.254;2023-06-01T13:53:16;28.50;77.10
4934;DHT22;2482;49.154;8.254;2023-06-01T13:55:43;28.20;71.20
4934;DHT22;2482;49.154;8.254;2023-06-01T13:58:10;28.40;72.70
4934;DHT22;2482;49.154;8.254;2023-06-01T14:00:37;28.70;74.30
4934;DHT22;2482;49.154;8.254;2023-06-01T14:03:04;28.90;79.30
4934;DHT22;2482;49.154;8.254;2023-06-01T14:05:31;28.70;76.30
4934;DHT22;2482;49.154;8.254;2023-06-01T14:08:17;28.60;77.10
4934;DHT22;2482;49.154;8.254;2023-06-01T14:10:44;28.50;77.20
4934;DHT22;2482;49.154;8.254;2023-06-01T14:13:11;28.30;74.20
4934;DHT22;2482;49.154;8.254;2023-06-01T14:15:39;28.30;72.30
4934;DHT22;2482;49.154;8.254;2023-06-01T14:18:06;28.30;77.70
4934;DHT22;2482;49.154;8.254;2023-06-01T14:20:33;28.30;75.50
4934;DHT22;2482;49.154;8.254;2023-06-01T14:23:02;28.00;78.50
4934;DHT22;2482;49.154;8.254;2023-06-01T14:25:30;28.10;76.60
4934;DHT22;2482;49.154;8.254;2023-06-01T14:27:57;28.40;71.50
4934;DHT22;2482;49.154;8.254;2023-06-01T14:30:24;28.60;75.60
4934;DHT22;2482;49.154;8.254;2023-06-01T14:32:53;28.50;79.30
4934;DHT22;2482;49.154;8.254;2023-06-01T14:35:20;28.10;73.00
4934;DHT22;2482;49.154;8.254;2023-06-01T14:37:47;27.80;76.00
4934;DHT22;2482;49.154;8.254;2023-06-01T14:40:16;27.70;74.10
4934;DHT22;2482;49.154;8.254;2023-06-01T14:42:44;27.60;73.10
4934;DHT22;2482;49.154;8.254;2023-06-01T14:45:11;27.50;77.00
4934;DHT22;2482;49.154;8.254;2023-06-01T14:47:38;27.50;72.90
4934;DHT22;2482;49.154;8.254;2023-06-01T14:50:09;27.60;72.50
4934;DHT22;2482;49.154;8.254;2023-06-01T14:52:36;27.60;72.70
4934;DHT22;2482;49.154;8.254;2023-06-01T14:55:03;27.70;71.20
4934;DHT22;2482;49.154;8.254;2023-06-01T14:57:31;27.70;68.60
4934;DHT22;2482;49.154;8.254;2023-06-01T14:59:58;28.00;72.70
4934;DHT22;2482;49.154;8.254;2023-06-01T15:02:32;28.00;69.50
4934;DHT22;2482;49.154;8.254;2023-06-01T15:04:59;27.90;73.40
4934;DHT22;2482;49.154;8.254;2023-06-01T15:07:26;27.80;74.30
4934;DHT22;2482;49.154;8.254;2023-06-01T15:09:54;27.90;77.40
4934;DHT22;2482;49.154;8.254;2023-06-01T15:12:21;28.10;75.90
4934;DHT22;2482;49.154;8.254;2023-06-01T15:14:48;28.10;75.40
4934;DHT22;2482;49.154;8.254;2023-06-01T15:17:17;27.80;71.90
4934;DHT22;2482;49.154;8.254;2023-06-01T15:19:44;27.60;74.90
4934;DHT22;2482;49.154;8.254;2023-06-01T15:22:12;27.70;79.30
4934;DHT22;2482;49.154;8.254;2023-06-01T15:24:40;27.70;76.50
4934;DHT22;2482;49.154;8.254;2023-06-01T15:27:07;27.60;77.40
4934;DHT22;2482;49.154;8.254;2023-06-01T15:29:35;27.50;74.40
4934;DHT22;2482;49.154;8.254;2023-06-01T15:32:03;27.50;77.90
4934;DHT22;2482;49.154;8.254;2023-06-01T15:34:30;27.50;81.00
4934;DHT22;2482;49.154;8.254;2023-06-01T15:36:57;27.20;78.40
4934;DHT22;2482;49.154;8.254;2023-06-01T15:39:24;27.30;72.50
4934;DHT22;2482;49.154;8.254;2023-06-01T15:41:51;27.40;75.00
4934;DHT22;2482;49.154;8.254;2023-06-01T15:44:21;27.40;74.80
4934;DHT22;2482;49.154;8.254;2023-06-01T15:46:48;27.30;71.50
4934;DHT22;2482;49.154;8.254;2023-06-01T15:49:15;27.30;81.00
4934;DHT22;2482;49.154;8.254;2023-06-01T15:51:42;27.40;70.90
4934;DHT22;2482;49.154;8.254;2023-06-01T15:54:09;27.60;74.30
4934;DHT22;2482;49.154;8.254;2023-06-01T15:56:36;27.70;71.70
4934;DHT22;2482;49.154;8.254;2023-06-01T15:59:03;27.40;76.40
4934;DHT22;2482;49.154;8.254;2023-06-01T16:01:30;27.30;71.20
4934;DHT22;2482;49.154;8.254;2023-06-01T16:03:58;27.30;76.20
4934;DHT22;2482;49.154;8.254;2023-06-01T16:06:25;27.40;79.40
4934;DHT22;2482;49.154;8.254;2023-06-01T16:08:52;27.30;76.30
4934;DHT22;2482;49.154;8.254;2023-06-01T16:11:20;27.00;77.50
4934;DHT22;2482;49.154;8.254;2023-06-01T16:13:47;27.00;76.30
4934;DHT22;2482;49.154;8.254;2023-06-01T16:16:14;27.20;73.10
4934;DHT22;2482;49.154;8.254;2023-06-01T16:18:42;27.30;74.70
4934;DHT22;2482;49.154;8.254;2023-06-01T16:21:09;27.20;77.30
4934;DHT22;2482;49.154;8.254;2023-06-01T16:23:36;27.00;71.90
4934;DHT22;2482;49.154;8.254;2023-06-01T16:26:03;27.10;72.70
4934;DHT22;2482;49.154;8.254;2023-06-01T16:28:31;26.90;73.00
4934;DHT22;2482;49.154;8.254;2023-06-01T16:30:58;27.00;71.90
4934;DHT22;2482;49.154;8.254;2023-06-01T16:33:25;27.00;74.00
4934;DHT22;2482;49.154;8.254;2023-06-01T16:35:55;27.00;72.20
4934;DHT22;2482;49.154;8.254;2023-06-01T16:38:22;26.90;75.40
4934;DHT22;2482;49.154;8.254;2023-06-01T16:40:49;26.90;76.00
4934;DHT22;2482;49.154;8.254;2023-06-01T16:43:16;26.70;82.60
4934;DHT22;2482;49.154;8.254;2023-06-01T16:45:45;26.90;74.00
4934;DHT22;2482;49.154;8.254;2023-06-01T16:48:13;27.10;73.00
4934;DHT22;2482;49.154;8.254;2023-06-01T16:50:40;27.00;79.70
4934;DHT22;2482;49.154;8.254;2023-06-01T16:53:10;27.00;75.10
4934;DHT22;2482;49.154;8.254;2023-06-01T16:55:37;26.90;73.80
4934;DHT22;2482;49.154;8.254;2023-06-01T16:58:05;27.00;75.50
4934;DHT22;2482;49.154;8.254;2023-06-01T17:00:32;27.00;70.90
4934;DHT22;2482;49.154;8.254;2023-06-01T17:02:59;27.30;74.20
4934;DHT22;2482;49.154;8.254;2023-06-01T17:05:26;27.40;74.00
4934;DHT22;2482;49.154;8.254;2023-06-01T17:07:54;27.30;75.30